Aviation Digital Data Service (ADDS)

Output produced by METARs form (2123 UTC 24 May 2017)
found at http://aviationweather.gov/adds/metars/
 
KLWB 242053Z 2421/2518 11007KT P6SM OVC010 
     FM242200 12008KT 5SM -SHRA OVC020 
     TEMPO 2422/2424 3SM TSRA OVC010CB 
     FM250300 17004KT 5SM -SHRA OVC010 
     FM250800 VRB03KT P6SM OVC015 
     FM251500 23009KT P6SM VCSH BKN045